Alexanders Store, Texas
Current Conditions -  °F | °C
As of 10:55 AM on Thursday 27 Nov 2014 (Local Time) from KOCH Reporting Station
Clear Clear  
Wind Chill: 13°   Ceiling: Unl
Heat Index: 13°   Visibility: 10mi
Dew Point: -4°   Wind: 7mph
Humidity: 31%   Direction: 80°E
Pressure: 30.52"   Gusts: NA
Location:  31.7022°N, 93.9592°W
Report Text: KOCH 271655Z AUTO 08006KT 10SM CLR 13/M04 A3052 RMK AO1
Loading
Personal Weather Stations






























Interactive Weather Map New forecast layout! Learn more

10-Day Weather Forecast

Advertisements
Track Severe Weather on mobile